Time;durP1;ratioP1;P1;durP2;ratioP2;P2;SDS_P1;SDS_P2;PMS_P1;PMS_P2;Temp;Humidity;BMP_temperature;BMP_pressure;BME280_temperature;BME280_humidity;BME280_pressure;Samples;Min_cycle;Max_cycle;Signal;HPM_P1;HPM_P2
2023/08/15 00:02:04;;;;;;;17.40;8.20;;;;;;;17.18;100.00;101613.83;105871;1256;64689;-50
2023/08/15 00:04:31;;;;;;;13.40;7.00;;;;;;;17.12;100.00;101616.63;105941;1253;71405;-48
2023/08/15 00:06:58;;;;;;;15.50;7.70;;;;;;;17.07;100.00;101616.07;105906;1256;62002;-51
2023/08/15 00:09:25;;;;;;;11.90;6.50;;;;;;;17.07;100.00;101620.08;105996;1251;60329;-48
2023/08/15 00:11:52;;;;;;;13.90;7.50;;;;;;;17.07;100.00;101616.23;105948;1255;72898;-48
2023/08/15 00:14:19;;;;;;;14.30;7.20;;;;;;;17.07;100.00;101611.88;105913;1256;64987;-48
2023/08/15 00:16:46;;;;;;;14.60;7.50;;;;;;;17.06;100.00;101610.67;105929;1253;72624;-48
2023/08/15 00:19:13;;;;;;;22.50;7.50;;;;;;;17.02;100.00;101616.17;105870;1251;61899;-49
2023/08/15 00:21:40;;;;;;;16.20;6.80;;;;;;;16.99;100.00;101618.00;105902;1253;60149;-48
2023/08/15 00:24:07;;;;;;;15.70;7.90;;;;;;;16.95;100.00;101624.02;105886;1253;73163;-48
2023/08/15 00:26:34;;;;;;;13.40;8.10;;;;;;;16.93;100.00;101624.41;105911;1255;64684;-48
2023/08/15 00:29:01;;;;;;;14.70;7.90;;;;;;;16.91;100.00;101628.99;105930;1254;72461;-49
2023/08/15 00:31:28;;;;;;;22.60;8.90;;;;;;;16.87;100.00;101629.64;105931;1255;61891;-48
2023/08/15 00:33:55;;;;;;;15.90;8.90;;;;;;;16.81;100.00;101629.09;105928;1252;59723;-48
2023/08/15 00:36:22;;;;;;;21.20;9.50;;;;;;;16.75;100.00;101637.61;105900;1256;73095;-48
2023/08/15 00:38:51;;;;;;;10.00;8.10;;;;;;;16.70;100.00;101636.17;105938;1256;64493;-47
2023/08/15 00:41:18;;;;;;;13.70;8.40;;;;;;;16.67;100.00;101639.02;105943;1251;72486;-48
2023/08/15 00:43:45;;;;;;;21.00;7.80;;;;;;;16.65;100.00;101641.33;105926;1256;61930;-48
2023/08/15 00:46:12;;;;;;;10.30;7.20;;;;;;;16.60;100.00;101640.59;105896;1253;60326;-48
2023/08/15 00:48:39;;;;;;;13.00;7.30;;;;;;;16.57;100.00;101641.19;105941;1253;72988;-48
2023/08/15 00:51:07;;;;;;;10.20;7.50;;;;;;;16.55;100.00;101638.45;105917;1256;64712;-48
2023/08/15 00:53:34;;;;;;;13.60;7.90;;;;;;;16.50;100.00;101635.25;105684;1253;72745;-48
2023/08/15 00:56:02;;;;;;;16.20;7.60;;;;;;;16.46;100.00;101632.77;105895;1256;61950;-49
2023/08/15 00:58:29;;;;;;;16.00;7.50;;;;;;;16.42;100.00;101632.32;105905;1253;60230;-49
2023/08/15 01:00:56;;;;;;;16.70;7.50;;;;;;;16.39;100.00;101629.42;105905;1256;71855;-49
2023/08/15 01:03:23;;;;;;;13.50;7.50;;;;;;;16.37;100.00;101629.83;105976;1256;64683;-48
2023/08/15 01:05:50;;;;;;;15.10;7.80;;;;;;;16.34;100.00;101631.11;105869;1253;72582;-48
2023/08/15 01:08:17;;;;;;;13.00;7.60;;;;;;;16.31;100.00;101627.17;105897;1255;61851;-48
2023/08/15 01:10:45;;;;;;;11.40;6.80;;;;;;;16.28;100.00;101626.55;105914;1251;59614;-49
2023/08/15 01:13:26;;;;;;;24.60;7.00;;;;;;;16.25;100.00;101626.98;105883;1252;73155;-50
2023/08/15 01:15:53;;;;;;;9.60;7.00;;;;;;;16.22;100.00;101625.98;105909;1257;64572;-53
2023/08/15 01:18:24;;;;;;;8.30;6.40;;;;;;;16.19;100.00;101621.02;105972;1253;72521;-51
2023/08/15 01:20:51;;;;;;;24.70;7.00;;;;;;;16.15;100.00;101623.88;105908;1256;61912;-49
2023/08/15 01:23:22;;;;;;;10.20;6.40;;;;;;;16.11;100.00;101623.65;105833;1253;60275;-52
2023/08/15 01:25:49;;;;;;;16.90;6.30;;;;;;;16.07;100.00;101625.29;105944;1251;71699;-53
2023/08/15 01:28:17;;;;;;;11.60;6.70;;;;;;;16.04;100.00;101623.45;105953;1253;63365;-49
2023/08/15 01:30:58;;;;;;;22.60;6.90;;;;;;;16.01;100.00;101622.48;105931;1252;72604;-49
2023/08/15 01:33:30;;;;;;;14.60;6.70;;;;;;;15.99;100.00;101620.25;105919;1255;61920;-49
2023/08/15 01:36:09;;;;;;;14.00;6.80;;;;;;;15.99;100.00;101615.23;105859;1253;60119;-48
2023/08/15 01:38:41;;;;;;;12.70;6.50;;;;;;;15.99;100.00;101618.69;105878;1251;71583;-47
2023/08/15 01:41:08;;;;;;;16.00;6.50;;;;;;;16.00;100.00;101618.84;105962;1256;64685;-48
2023/08/15 01:43:37;;;;;;;18.10;6.80;;;;;;;15.98;100.00;101620.45;105843;1253;72663;-48
2023/08/15 01:46:04;;;;;;;12.70;6.60;;;;;;;15.98;100.00;101624.27;105904;1259;62054;-49
2023/08/15 01:48:32;;;;;;;12.30;6.80;;;;;;;15.98;100.00;101624.46;105869;1253;59597;-48
2023/08/15 01:51:00;;;;;;;13.20;6.00;;;;;;;15.95;100.00;101625.56;105908;1256;73067;-48
2023/08/15 01:53:26;;;;;;;11.30;6.20;;;;;;;15.92;100.00;101625.10;105916;1256;64873;-49
2023/08/15 01:55:53;;;;;;;14.70;6.20;;;;;;;15.89;100.00;101622.56;105838;1253;72616;-49
2023/08/15 01:58:21;;;;;;;11.60;6.60;;;;;;;15.86;100.00;101622.61;105872;1253;61936;-49
2023/08/15 02:00:48;;;;;;;12.90;6.80;;;;;;;15.84;100.00;101624.73;105904;1253;60506;-49
2023/08/15 02:03:15;;;;;;;11.40;6.30;;;;;;;15.83;100.00;101618.85;105904;1255;73808;-49
2023/08/15 02:05:42;;;;;;;9.70;5.90;;;;;;;15.79;100.00;101621.35;105900;1256;64562;-48
2023/08/15 02:08:09;;;;;;;12.10;6.10;;;;;;;15.75;100.00;101619.69;105858;1255;71646;-49
2023/08/15 02:10:37;;;;;;;13.70;6.90;;;;;;;15.72;100.00;101621.85;105983;1255;60534;-48
2023/08/15 02:13:06;;;;;;;6.50;5.80;;;;;;;15.71;100.00;101622.23;105897;1252;60534;-48
2023/08/15 02:15:33;;;;;;;17.00;7.30;;;;;;;15.69;100.00;101621.22;105831;1251;73811;-48
2023/08/15 02:18:00;;;;;;;16.10;6.00;;;;;;;15.68;100.00;101624.89;105736;1257;64468;-48
2023/08/15 02:20:28;;;;;;;10.60;5.60;;;;;;;15.68;100.00;101621.59;105703;1256;72486;-51
2023/08/15 02:22:55;;;;;;;13.00;6.20;;;;;;;15.64;100.00;101623.23;105933;1253;62002;-50
2023/08/15 02:25:23;;;;;;;12.80;6.30;;;;;;;15.61;100.00;101622.25;105899;1256;60428;-48
2023/08/15 02:27:51;;;;;;;13.50;6.90;;;;;;;15.58;100.00;101620.94;105908;1254;73726;-49
2023/08/15 02:30:19;;;;;;;13.50;6.70;;;;;;;15.54;100.00;101621.02;105923;1256;64728;-49
2023/08/15 02:32:46;;;;;;;11.40;6.80;;;;;;;15.51;100.00;101621.59;105861;1253;72639;-48
2023/08/15 02:35:13;;;;;;;8.40;5.50;;;;;;;15.46;100.00;101622.72;105897;1253;61649;-48
2023/08/15 02:37:40;;;;;;;16.30;6.40;;;;;;;15.43;100.00;101624.54;105935;1251;60636;-49
2023/08/15 02:40:09;;;;;;;17.10;6.10;;;;;;;15.41;100.00;101625.62;105940;1253;74195;-48
2023/08/15 02:42:36;;;;;;;7.80;5.10;;;;;;;15.38;100.00;101631.23;105861;1253;64637;-48
2023/08/15 02:45:05;;;;;;;9.90;5.60;;;;;;;15.38;100.00;101631.59;105937;1255;72583;-47
2023/08/15 02:47:34;;;;;;;7.50;5.10;;;;;;;15.39;100.00;101637.48;105857;1257;61887;-48
2023/08/15 02:50:01;;;;;;;12.00;5.80;;;;;;;15.41;100.00;101639.89;105895;1253;60502;-48
2023/08/15 02:52:30;;;;;;;8.60;5.70;;;;;;;15.46;100.00;101643.60;105947;1254;73815;-49
2023/08/15 02:54:57;;;;;;;16.10;7.50;;;;;;;15.54;100.00;101647.80;105906;1256;64796;-48
2023/08/15 02:57:24;;;;;;;19.40;7.10;;;;;;;15.62;100.00;101649.03;105913;1252;72702;-49
2023/08/15 02:59:51;;;;;;;16.80;8.80;;;;;;;15.72;100.00;101648.48;105901;1253;60948;-48
2023/08/15 03:02:18;;;;;;;10.80;6.30;;;;;;;15.83;100.00;101650.00;105951;1251;60420;-48
2023/08/15 03:04:46;;;;;;;11.40;6.00;;;;;;;15.88;100.00;101648.85;105924;1252;73777;-49
2023/08/15 03:07:13;;;;;;;13.10;6.10;;;;;;;15.90;100.00;101651.27;105869;1256;64867;-49
2023/08/15 03:09:39;;;;;;;8.10;5.80;;;;;;;15.92;100.00;101650.34;105906;1252;72675;-48
2023/08/15 03:12:07;;;;;;;10.00;6.00;;;;;;;15.97;100.00;101653.19;105891;1253;61937;-49
2023/08/15 03:14:35;;;;;;;16.10;7.10;;;;;;;16.02;100.00;101653.24;105877;1253;60505;-48
2023/08/15 03:17:03;;;;;;;17.40;6.30;;;;;;;16.07;100.00;101655.42;105919;1256;73736;-48
2023/08/15 03:19:30;;;;;;;12.60;6.90;;;;;;;16.15;100.00;101653.84;105907;1256;65594;-49
2023/08/15 03:21:57;;;;;;;12.30;6.50;;;;;;;16.23;100.00;101657.33;105857;1253;72508;-48
2023/08/15 03:24:28;;;;;;;15.50;6.80;;;;;;;16.29;100.00;101660.49;105863;1256;61805;-48
2023/08/15 03:26:57;;;;;;;15.50;7.00;;;;;;;16.37;100.00;101661.70;105923;1256;60521;-48
2023/08/15 03:29:24;;;;;;;9.20;6.10;;;;;;;16.47;100.00;101664.27;105889;1256;73925;-49
2023/08/15 03:31:55;;;;;;;17.70;7.10;;;;;;;16.58;100.00;101665.73;105867;1257;64638;-48
2023/08/15 03:34:23;;;;;;;13.70;6.20;;;;;;;16.68;100.00;101665.31;105918;1256;72469;-48
2023/08/15 03:36:50;;;;;;;17.30;7.00;;;;;;;16.77;100.00;101665.80;105904;1256;61997;-48
2023/08/15 03:39:17;;;;;;;15.40;7.40;;;;;;;16.87;100.00;101662.92;105887;1253;60492;-48
2023/08/15 03:41:45;;;;;;;13.00;7.40;;;;;;;16.94;100.00;101667.61;105867;1257;73994;-49
2023/08/15 03:44:11;;;;;;;12.00;7.40;;;;;;;17.01;100.00;101668.52;105859;1253;64636;-48
2023/08/15 03:46:40;;;;;;;9.00;8.10;;;;;;;17.08;100.00;101669.92;105898;1256;72684;-48
2023/08/15 03:49:07;;;;;;;15.80;8.20;;;;;;;17.16;100.00;101671.96;105830;1253;62011;-49
2023/08/15 03:51:34;;;;;;;17.70;7.70;;;;;;;17.26;100.00;101671.52;105827;1253;60502;-49
2023/08/15 03:54:13;;;;;;;19.80;9.40;;;;;;;17.39;100.00;101666.27;105859;1253;73776;-48
2023/08/15 03:56:41;;;;;;;16.40;8.10;;;;;;;17.54;100.00;101665.00;105871;1253;64761;-48
2023/08/15 03:59:08;;;;;;;16.40;7.40;;;;;;;17.75;100.00;101662.84;105897;1253;72875;-48
2023/08/15 04:01:35;;;;;;;21.30;7.70;;;;;;;18.03;100.00;101662.36;105943;1256;60505;-47
2023/08/15 04:04:03;;;;;;;19.30;7.20;;;;;;;18.38;100.00;101664.59;105896;1253;60447;-48
2023/08/15 04:06:31;;;;;;;18.70;6.70;;;;;;;18.77;100.00;101665.25;105914;1255;74242;-49
2023/08/15 04:08:57;;;;;;;17.10;7.90;;;;;;;19.15;100.00;101663.30;105891;1256;64643;-50
2023/08/15 04:11:24;;;;;;;18.50;7.80;;;;;;;19.52;100.00;101661.61;105828;1253;72637;-50
2023/08/15 04:13:51;;;;;;;19.60;6.80;;;;;;;19.85;100.00;101666.70;105895;1255;60432;-49
2023/08/15 04:16:18;;;;;;;13.90;6.80;;;;;;;20.04;100.00;101670.73;105854;1253;60433;-49
2023/08/15 04:18:45;;;;;;;21.80;6.80;;;;;;;20.29;100.00;101679.22;105861;1253;73864;-49
2023/08/15 04:21:12;;;;;;;19.30;6.70;;;;;;;20.62;100.00;101685.92;105869;1257;64555;-49
2023/08/15 04:23:40;;;;;;;11.60;6.40;;;;;;;20.96;100.00;101699.66;105930;1254;72604;-49
2023/08/15 04:26:07;;;;;;;15.30;6.10;;;;;;;21.20;100.00;101724.08;105880;1256;60779;-50
2023/08/15 04:28:34;;;;;;;9.90;6.10;;;;;;;21.44;100.00;101757.13;105840;1252;60885;-50
2023/08/15 04:31:01;;;;;;;14.80;5.70;;;;;;;21.65;100.00;101809.06;105852;1255;73670;-49
2023/08/15 04:33:28;;;;;;;13.50;5.90;;;;;;;21.91;100.00;101883.14;105864;1257;64404;-50
2023/08/15 04:35:55;;;;;;;11.90;6.10;;;;;;;22.08;100.00;102019.13;105838;1256;72575;-50
2023/08/15 04:38:22;;;;;;;14.40;6.00;;;;;;;22.24;100.00;102169.11;105873;1257;60361;-50
2023/08/15 04:40:49;;;;;;;17.70;6.60;;;;;;;22.42;100.00;102247.71;105891;1251;60643;-51
2023/08/15 04:43:16;;;;;;;11.70;6.00;;;;;;;22.59;100.00;102195.50;105962;1256;73874;-50
2023/08/15 04:45:43;;;;;;;14.60;5.90;;;;;;;22.74;100.00;102026.31;105896;1257;64436;-51
2023/08/15 04:48:13;;;;;;;17.20;6.40;;;;;;;22.88;100.00;101796.56;105733;1253;72536;-50
2023/08/15 04:50:41;;;;;;;16.90;6.50;;;;;;;23.03;100.00;101611.22;105751;1257;60422;-52
2023/08/15 04:53:08;;;;;;;20.70;7.10;;;;;;;23.14;100.00;101445.02;105911;1253;60438;-51
2023/08/15 04:55:35;;;;;;;14.10;6.30;;;;;;;23.22;100.00;101334.52;105914;1255;73729;-49
2023/08/15 04:58:02;;;;;;;11.50;7.70;;;;;;;23.33;100.00;101270.91;105927;1256;64520;-49
2023/08/15 05:00:29;;;;;;;17.80;7.70;;;;;;;23.42;100.00;101205.55;105879;1253;72798;-50
2023/08/15 05:03:01;;;;;;;19.70;8.10;;;;;;;23.41;100.00;101128.15;105844;1256;60387;-50
2023/08/15 05:05:28;;;;;;;31.80;9.30;;;;;;;23.37;100.00;101110.40;105923;1253;60501;-51
2023/08/15 05:07:55;;;;;;;28.40;8.90;;;;;;;23.48;100.00;101120.84;105918;1256;73811;-50
2023/08/15 05:10:22;;;;;;;30.60;9.70;;;;;;;23.71;100.00;101133.15;105895;1259;64539;-49
2023/08/15 05:12:49;;;;;;;31.90;8.30;;;;;;;23.94;100.00;101122.36;105830;1253;72391;-50
2023/08/15 05:15:17;;;;;;;21.40;9.00;;;;;;;24.17;100.00;101110.87;105930;1256;60613;-50
2023/08/15 05:17:48;;;;;;;26.70;10.00;;;;;;;24.41;100.00;101106.50;105890;1253;60543;-51
2023/08/15 05:20:15;;;;;;;22.30;9.20;;;;;;;24.63;100.00;101109.61;105877;1257;73805;-53
2023/08/15 05:22:43;;;;;;;21.00;7.80;;;;;;;24.76;100.00;101115.46;105909;1256;64537;-54
2023/08/15 05:25:10;;;;;;;18.50;7.60;;;;;;;24.77;100.00;101152.08;105910;1251;72572;-51
2023/08/15 05:27:43;;;;;;;13.30;7.10;;;;;;;24.68;100.00;101172.95;105831;1256;60429;-52
2023/08/15 05:30:11;;;;;;;17.50;7.30;;;;;;;24.54;100.00;101195.91;105911;1251;60434;-52
2023/08/15 05:32:38;;;;;;;18.20;6.60;;;;;;;24.32;100.00;101210.40;105902;1255;73600;-50
2023/08/15 05:35:06;;;;;;;18.10;6.70;;;;;;;24.11;100.00;101212.77;105882;1256;64379;-49
2023/08/15 05:37:33;;;;;;;12.50;6.40;;;;;;;23.98;100.00;101193.30;105874;1253;72476;-49
2023/08/15 05:40:00;;;;;;;22.60;6.60;;;;;;;23.87;100.00;101182.20;105900;1253;61743;-49
2023/08/15 05:42:31;;;;;;;11.60;6.50;;;;;;;23.66;100.00;101174.86;105985;1253;60399;-50
2023/08/15 05:44:58;;;;;;;13.20;6.10;;;;;;;23.47;100.00;101173.02;105870;1256;73985;-50
2023/08/15 05:47:25;;;;;;;14.30;6.80;;;;;;;23.34;100.00;101170.50;105853;1255;64652;-48
2023/08/15 05:49:52;;;;;;;14.30;6.50;;;;;;;23.27;100.00;101168.11;105885;1256;72620;-49
2023/08/15 05:52:19;;;;;;;17.90;5.90;;;;;;;23.23;100.00;101170.03;105874;1253;61981;-49
2023/08/15 05:54:46;;;;;;;13.90;5.70;;;;;;;23.30;100.00;101172.52;105928;1253;60514;-49
2023/08/15 05:57:13;;;;;;;12.80;6.10;;;;;;;23.37;100.00;101161.33;105907;1256;73813;-49
2023/08/15 05:59:40;;;;;;;14.70;5.70;;;;;;;23.50;100.00;101153.70;105887;1256;64832;-49
2023/08/15 06:02:07;;;;;;;9.70;5.60;;;;;;;23.59;100.00;101151.33;105877;1254;72629;-51
2023/08/15 06:04:34;;;;;;;15.00;6.00;;;;;;;23.67;100.00;101150.70;105939;1256;60980;-51
2023/08/15 06:07:02;;;;;;;16.60;6.20;;;;;;;23.74;100.00;101145.15;105944;1254;60524;-49
2023/08/15 06:09:29;;;;;;;13.90;6.10;;;;;;;23.79;100.00;101147.95;105916;1251;73740;-49
2023/08/15 06:11:56;;;;;;;7.40;5.50;;;;;;;23.84;100.00;101156.99;105916;1256;64767;-48
2023/08/15 06:14:23;;;;;;;15.70;5.70;;;;;;;23.86;100.00;101169.73;105906;1255;72632;-50
2023/08/15 06:16:50;;;;;;;9.50;5.80;;;;;;;23.90;100.00;101167.59;105927;1256;60500;-48
2023/08/15 06:19:18;;;;;;;14.20;5.70;;;;;;;23.95;100.00;101157.33;105879;1253;60463;-48
2023/08/15 06:21:45;;;;;;;16.00;6.00;;;;;;;24.03;100.00;101156.90;105968;1254;73108;-48
2023/08/15 06:24:12;;;;;;;12.90;6.00;;;;;;;24.10;100.00;101160.83;105904;1255;64691;-49
2023/08/15 06:26:39;;;;;;;17.60;5.20;;;;;;;24.22;100.00;101160.25;105929;1254;72618;-49
2023/08/15 06:29:07;;;;;;;8.70;5.40;;;;;;;24.34;100.00;101155.60;105880;1253;61937;-49
2023/08/15 06:31:34;;;;;;;13.40;5.50;;;;;;;24.43;100.00;101161.20;105903;1256;60342;-49
2023/08/15 06:34:02;;;;;;;17.10;5.70;;;;;;;24.53;100.00;101176.75;105919;1253;73914;-49
2023/08/15 06:36:30;;;;;;;9.60;5.80;;;;;;;24.65;100.00;101180.93;105906;1256;64717;-49
2023/08/15 06:38:57;;;;;;;8.10;5.60;;;;;;;24.79;100.00;101197.14;105915;1253;72614;-50
2023/08/15 06:41:24;;;;;;;6.40;5.10;;;;;;;24.92;100.00;101222.75;105937;1256;60348;-49
2023/08/15 06:43:52;;;;;;;4.80;4.40;;;;;;;25.09;100.00;101234.14;105926;1256;60425;-49
2023/08/15 06:46:19;;;;;;;7.00;4.90;;;;;;;25.23;100.00;101262.00;105879;1256;73704;-49
2023/08/15 06:48:46;;;;;;;6.80;4.90;;;;;;;25.33;100.00;101308.11;105897;1256;64641;-49
2023/08/15 06:51:13;;;;;;;7.70;5.10;;;;;;;25.44;100.00;101345.57;105889;1254;72588;-51
2023/08/15 06:53:44;;;;;;;8.10;5.30;;;;;;;25.53;100.00;101347.94;105860;1256;60421;-51
2023/08/15 06:56:11;;;;;;;5.90;5.00;;;;;;;25.65;100.00;101342.41;105890;1254;60524;-51
2023/08/15 06:58:38;;;;;;;5.60;4.10;;;;;;;25.72;100.00;101343.46;105873;1255;73784;-51
2023/08/15 07:01:06;;;;;;;8.00;4.40;;;;;;;25.77;100.00;101406.44;105917;1256;64666;-49
2023/08/15 07:03:33;;;;;;;7.20;4.30;;;;;;;25.88;100.00;101445.14;105917;1253;72618;-49
2023/08/15 07:06:00;;;;;;;7.90;3.90;;;;;;;26.02;100.00;101455.82;105883;1256;60423;-50
2023/08/15 07:08:29;;;;;;;5.00;4.00;;;;;;;26.13;100.00;101482.85;105999;1252;60445;-50
2023/08/15 07:10:56;;;;;;;11.40;4.60;;;;;;;26.21;100.00;101493.99;105891;1256;73916;-49
2023/08/15 07:13:23;;;;;;;6.30;4.10;;;;;;;26.28;100.00;101500.41;105941;1256;64553;-50
2023/08/15 07:15:56;;;;;;;13.70;4.90;;;;;;;26.34;100.00;101508.48;105919;1256;72616;-49
2023/08/15 07:18:23;;;;;;;6.60;4.30;;;;;;;26.44;100.00;101501.62;105927;1256;61871;-51
2023/08/15 07:20:51;;;;;;;6.00;3.80;;;;;;;26.55;100.00;101491.48;105626;1254;60502;-49
2023/08/15 07:23:18;;;;;;;8.20;3.70;;;;;;;26.62;100.00;101493.48;105816;1254;73758;-51
2023/08/15 07:25:45;;;;;;;5.20;3.90;;;;;;;26.73;100.00;101509.58;105891;1255;64785;-53
2023/08/15 07:28:12;;;;;;;9.70;4.20;;;;;;;26.91;99.73;101514.31;105931;1253;72652;-53
2023/08/15 07:30:41;;;;;;;5.30;3.70;;;;;;;27.09;100.00;101527.58;105918;1256;60470;-50
2023/08/15 07:33:08;;;;;;;11.80;3.60;;;;;;;27.27;95.47;101510.50;105894;1254;60648;-48
2023/08/15 07:35:35;;;;;;;8.80;3.50;;;;;;;27.46;87.58;101499.77;105908;1252;73790;-51
2023/08/15 07:38:03;;;;;;;9.90;3.10;;;;;;;27.54;80.79;101480.22;105959;1256;64832;-50
2023/08/15 07:40:29;;;;;;;5.50;3.80;;;;;;;27.44;77.14;101468.85;105877;1254;72674;-50
2023/08/15 07:42:56;;;;;;;3.90;3.30;;;;;;;27.36;79.06;101523.13;105870;1256;60411;-49
2023/08/15 07:45:24;;;;;;;6.10;3.50;;;;;;;27.53;80.37;101537.30;105897;1254;60517;-51
2023/08/15 07:47:56;;;;;;;4.90;3.50;;;;;;;27.75;77.31;101507.73;105867;1254;73977;-51
2023/08/15 07:50:26;;;;;;;5.90;3.20;;;;;;;27.98;75.52;101498.39;105875;1256;64717;-49
2023/08/15 07:52:53;;;;;;;7.50;3.60;;;;;;;28.22;72.60;101461.27;105902;1256;72758;-50
2023/08/15 07:55:20;;;;;;;5.70;2.70;;;;;;;28.37;74.00;101504.27;105931;1256;60444;-51
2023/08/15 07:57:47;;;;;;;4.10;3.10;;;;;;;28.45;72.73;101491.33;105904;1256;60534;-49
2023/08/15 08:00:15;;;;;;;13.10;3.50;;;;;;;28.53;71.52;101474.30;105866;1256;73726;-49
2023/08/15 08:02:46;;;;;;;9.90;2.90;;;;;;;28.71;70.81;101470.76;105934;1256;64647;-49
2023/08/15 08:05:16;;;;;;;3.80;2.60;;;;;;;28.90;70.04;101464.30;105890;1257;72607;-50
2023/08/15 08:07:43;;;;;;;9.00;2.80;;;;;;;28.99;66.04;101391.85;105900;1256;60639;-51
2023/08/15 08:10:10;;;;;;;11.90;2.80;;;;;;;28.93;65.38;101401.61;105927;1254;60528;-50
2023/08/15 08:12:38;;;;;;;4.70;2.20;;;;;;;29.06;66.99;101447.41;105899;1256;74196;-49
2023/08/15 08:15:05;;;;;;;3.60;2.10;;;;;;;29.21;63.83;101369.98;105910;1257;64477;-51
2023/08/15 08:17:32;;;;;;;6.50;2.30;;;;;;;29.39;64.36;101396.88;105968;1256;72697;-51
2023/08/15 08:19:59;;;;;;;7.50;2.00;;;;;;;29.59;61.91;101337.46;105854;1255;60758;-51
2023/08/15 08:22:27;;;;;;;5.30;1.90;;;;;;;29.74;61.12;101316.48;105902;1253;60530;-51
2023/08/15 08:24:53;;;;;;;3.30;1.90;;;;;;;29.74;60.31;101312.02;105968;1256;73698;-49
2023/08/15 08:27:21;;;;;;;8.30;2.20;;;;;;;29.67;58.90;101269.73;105882;1255;62968;-50
2023/08/15 08:29:48;;;;;;;2.70;2.00;;;;;;;29.67;57.96;101247.55;105957;1254;72554;-51
2023/08/15 08:32:15;;;;;;;2.40;1.90;;;;;;;29.81;58.70;101304.63;105924;1256;60420;-52
2023/08/15 08:34:43;;;;;;;7.50;2.40;;;;;;;29.94;59.35;101333.08;105977;1256;60406;-51
2023/08/15 08:37:09;;;;;;;7.20;2.00;;;;;;;30.03;56.34;101193.86;105900;1256;73764;-50
2023/08/15 08:39:36;;;;;;;7.00;2.20;;;;;;;30.17;55.67;101161.83;105930;1256;64647;-52
2023/08/15 08:42:04;;;;;;;9.30;2.30;;;;;;;30.39;55.78;101189.59;105904;1256;72487;-51
2023/08/15 08:44:32;;;;;;;5.20;2.30;;;;;;;30.61;54.13;101075.29;105895;1254;60465;-50
2023/08/15 08:46:59;;;;;;;6.30;2.20;;;;;;;30.74;53.36;101039.35;105951;1252;60517;-50
2023/08/15 08:49:27;;;;;;;4.60;2.20;;;;;;;30.89;53.76;101102.19;105933;1252;74278;-52
2023/08/15 08:51:55;;;;;;;6.80;2.00;;;;;;;31.01;53.42;101083.50;105953;1256;64563;-52
2023/08/15 08:54:22;;;;;;;4.50;1.80;;;;;;;31.14;51.50;100922.93;105896;1256;72519;-52
2023/08/15 08:57:09;;;;;;;6.70;1.90;;;;;;;31.18;51.73;100976.70;105825;1256;60810;-52
2023/08/15 08:59:37;;;;;;;10.40;2.20;;;;;;;31.31;51.29;100947.48;105905;1256;60531;-51
2023/08/15 09:02:06;;;;;;;2.60;2.30;;;;;;;31.50;53.89;101182.92;105705;1259;73973;-51
2023/08/15 09:04:34;;;;;;;5.80;2.00;;;;;;;31.66;52.08;101036.85;105942;1255;62476;-52
2023/08/15 09:07:01;;;;;;;8.70;1.90;;;;;;;31.70;50.08;100867.79;105714;1256;72628;-51
2023/08/15 09:09:28;;;;;;;7.30;1.80;;;;;;;31.68;49.00;100772.98;105959;1256;60335;-51
2023/08/15 09:11:55;;;;;;;6.90;2.00;;;;;;;31.60;47.76;100685.70;105986;1253;60502;-52
2023/08/15 09:14:22;;;;;;;3.70;2.00;;;;;;;31.39;47.72;100686.42;105884;1257;73912;-51
2023/08/15 09:16:49;;;;;;;1.60;1.50;;;;;;;31.30;49.20;100848.66;105944;1256;64633;-49
2023/08/15 09:19:16;;;;;;;5.80;2.20;;;;;;;31.12;48.79;100833.13;105940;1256;72610;-54
2023/08/15 09:21:44;;;;;;;5.10;1.90;;;;;;;30.92;50.16;100996.05;105885;1256;60509;-54
2023/08/15 09:24:10;;;;;;;4.60;1.80;;;;;;;31.05;49.91;100989.25;105956;1256;60436;-52
2023/08/15 09:26:38;;;;;;;2.80;2.00;;;;;;;31.28;50.27;101015.99;105927;1255;73773;-52
2023/08/15 09:29:05;;;;;;;6.90;2.30;;;;;;;31.55;49.28;100917.32;105944;1256;64427;-54
2023/08/15 09:31:32;;;;;;;5.80;1.60;;;;;;;31.72;46.95;100672.17;105909;1254;72600;-54
2023/08/15 09:33:59;;;;;;;14.10;2.60;;;;;;;31.81;48.76;100835.30;105933;1264;60386;-49
2023/08/15 09:36:28;;;;;;;10.90;3.20;;;;;;;32.04;50.74;101051.86;105921;1254;60470;-51
2023/08/15 09:38:58;;;;;;;18.20;3.30;;;;;;;32.32;50.62;101039.44;105919;1256;73755;-50
2023/08/15 09:41:25;;;;;;;7.00;2.50;;;;;;;32.46;50.23;100999.49;105929;1258;64552;-51
2023/08/15 09:43:54;;;;;;;10.90;2.40;;;;;;;32.45;50.11;100982.66;105904;1254;72496;-54
2023/08/15 09:46:21;;;;;;;5.20;2.10;;;;;;;32.23;51.20;101100.73;105655;1256;60504;-56
2023/08/15 09:48:51;;;;;;;4.10;2.30;;;;;;;32.17;51.05;101100.89;105851;1253;60460;-53
2023/08/15 09:51:18;;;;;;;8.10;2.30;;;;;;;32.09;52.17;101204.66;105933;1256;72567;-51
2023/08/15 09:53:46;;;;;;;5.40;2.50;;;;;;;32.19;52.50;101224.93;105939;1257;64624;-51
2023/08/15 09:56:13;;;;;;;7.80;2.40;;;;;;;32.40;52.92;101248.81;105919;1253;72635;-51
2023/08/15 09:58:40;;;;;;;5.40;2.10;;;;;;;32.64;51.89;101134.83;105910;1257;60455;-52
2023/08/15 10:01:08;;;;;;;9.90;2.20;;;;;;;32.90;50.49;100987.03;105970;1254;60412;-52
2023/08/15 10:03:37;;;;;;;9.80;2.30;;;;;;;33.14;50.32;100979.20;105681;1255;337181;-52
2023/08/15 10:07:14;;;;;;;8.60;2.50;;;;;;;33.05;49.26;100895.68;102499;1295;603437;-52
2023/08/15 10:09:41;;;;;;;16.90;2.30;;;;;;;33.00;49.32;100898.53;105100;1269;60256;-52
2023/08/15 10:12:08;;;;;;;7.00;2.20;;;;;;;32.94;50.18;101001.86;104872;1267;60126;-53
2023/08/15 10:14:37;;;;;;;3.80;2.10;;;;;;;32.88;52.28;101215.05;104818;1267;70925;-52
2023/08/15 10:17:04;;;;;;;2.20;1.80;;;;;;;33.03;51.46;101124.05;105081;1269;65000;-53
2023/08/15 10:19:32;;;;;;;5.80;1.70;;;;;;;33.09;49.85;100984.52;105120;1260;210035;-52
2023/08/15 10:21:59;;;;;;;2.60;1.80;;;;;;;32.99;49.40;100940.27;105618;1255;59317;-52
2023/08/15 10:24:26;;;;;;;4.30;1.80;;;;;;;32.82;49.85;100996.80;105520;1260;60268;-53
2023/08/15 10:26:53;;;;;;;2.20;1.90;;;;;;;32.66;49.78;101006.39;105692;1258;72182;-52
2023/08/15 10:29:20;;;;;;;3.20;1.80;;;;;;;32.52;51.13;101163.28;105651;1260;64542;-53
2023/08/15 10:31:49;;;;;;;4.60;1.70;;;;;;;32.59;50.66;101117.69;105664;1258;72653;-53
2023/08/15 10:34:16;;;;;;;11.10;2.10;;;;;;;32.63;51.33;101164.02;105534;1262;60400;-53
2023/08/15 10:36:43;;;;;;;8.70;1.80;;;;;;;32.52;49.77;101005.88;105447;1258;60165;-52
2023/08/15 10:39:10;;;;;;;5.80;2.00;;;;;;;32.47;50.86;101117.61;105469;1263;73066;-53
2023/08/15 10:41:37;;;;;;;7.90;2.20;;;;;;;32.67;51.06;101127.01;105512;1262;64677;-52
2023/08/15 10:44:06;;;;;;;3.20;2.00;;;;;;;32.69;50.46;101065.71;105646;1258;72620;-52
2023/08/15 10:46:34;;;;;;;2.90;1.80;;;;;;;32.60;51.03;101135.90;105642;1260;60775;-52
2023/08/15 10:49:11;;;;;;;1.70;1.60;;;;;;;32.70;49.26;100984.17;105650;1257;60151;-52
2023/08/15 10:51:40;;;;;;;6.20;1.80;;;;;;;32.61;49.28;100961.36;105614;1261;73247;-52
2023/08/15 10:54:11;;;;;;;2.80;1.80;;;;;;;32.65;49.89;101044.45;105666;1260;64497;-51
2023/08/15 10:56:39;;;;;;;5.00;1.90;;;;;;;32.87;49.63;100995.84;105651;1258;72604;-51
2023/08/15 10:59:12;;;;;;;6.80;2.20;;;;;;;32.96;49.71;101015.91;105708;1261;60427;-52
2023/08/15 11:01:41;;;;;;;7.00;1.80;;;;;;;33.11;51.28;101143.06;105679;1260;60058;-52
2023/08/15 11:04:10;;;;;;;2.70;1.70;;;;;;;33.34;50.06;101022.46;105660;1260;71646;-53
2023/08/15 11:06:47;;;;;;;3.40;1.80;;;;;;;33.23;47.57;100773.08;105568;1260;63784;-52
2023/08/15 11:09:15;;;;;;;6.20;1.80;;;;;;;33.01;48.75;100912.03;105630;1258;72515;-51
2023/08/15 11:11:42;;;;;;;2.40;1.80;;;;;;;33.10;49.83;101019.97;105641;1259;60309;-50